sensor_id;sensor_type;location;lat;lon;timestamp;P1;durP1;ratioP1;P2;durP2;ratioP2
20209;SDS011;10264;53.178;5.840;2022-08-05T00:01:28;3.57;;;2.40;;
20209;SDS011;10264;53.178;5.840;2022-08-05T00:04:02;3.50;;;2.30;;
20209;SDS011;10264;53.178;5.840;2022-08-05T00:06:30;3.50;;;1.80;;
20209;SDS011;10264;53.178;5.840;2022-08-05T00:09:00;4.07;;;2.40;;
20209;SDS011;10264;53.178;5.840;2022-08-05T00:11:28;7.33;;;2.60;;
20209;SDS011;10264;53.178;5.840;2022-08-05T00:14:00;5.10;;;2.83;;
20209;SDS011;10264;53.178;5.840;2022-08-05T00:16:42;7.10;;;2.50;;
20209;SDS011;10264;53.178;5.840;2022-08-05T00:19:19;9.80;;;2.33;;
20209;SDS011;10264;53.178;5.840;2022-08-05T00:21:49;3.40;;;2.00;;
20209;SDS011;10264;53.178;5.840;2022-08-05T00:24:16;4.07;;;2.03;;
20209;SDS011;10264;53.178;5.840;2022-08-05T00:26:50;4.43;;;2.40;;
20209;SDS011;10264;53.178;5.840;2022-08-05T00:29:18;5.93;;;2.33;;
20209;SDS011;10264;53.178;5.840;2022-08-05T00:31:51;3.47;;;2.00;;
20209;SDS011;10264;53.178;5.840;2022-08-05T00:34:41;4.13;;;2.20;;
20209;SDS011;10264;53.178;5.840;2022-08-05T00:37:28;7.03;;;2.50;;
20209;SDS011;10264;53.178;5.840;2022-08-05T00:40:15;3.63;;;2.43;;
20209;SDS011;10264;53.178;5.840;2022-08-05T00:42:51;3.00;;;2.67;;
20209;SDS011;10264;53.178;5.840;2022-08-05T00:45:18;4.00;;;2.97;;
20209;SDS011;10264;53.178;5.840;2022-08-05T00:48:05;3.53;;;2.73;;
20209;SDS011;10264;53.178;5.840;2022-08-05T00:50:33;4.10;;;2.97;;
20209;SDS011;10264;53.178;5.840;2022-08-05T00:53:00;6.40;;;3.13;;
20209;SDS011;10264;53.178;5.840;2022-08-05T00:55:27;4.90;;;2.40;;
20209;SDS011;10264;53.178;5.840;2022-08-05T00:58:07;4.17;;;2.63;;
20209;SDS011;10264;53.178;5.840;2022-08-05T01:00:40;4.13;;;2.53;;
20209;SDS011;10264;53.178;5.840;2022-08-05T01:03:12;6.03;;;3.77;;
20209;SDS011;10264;53.178;5.840;2022-08-05T01:05:49;4.87;;;2.80;;
20209;SDS011;10264;53.178;5.840;2022-08-05T01:08:17;4.70;;;3.00;;
20209;SDS011;10264;53.178;5.840;2022-08-05T01:11:18;6.17;;;2.70;;
20209;SDS011;10264;53.178;5.840;2022-08-05T01:16:51;4.97;;;2.60;;
20209;SDS011;10264;53.178;5.840;2022-08-05T01:30:25;4.07;;;2.50;;
20209;SDS011;10264;53.178;5.840;2022-08-05T01:33:00;4.87;;;2.07;;
20209;SDS011;10264;53.178;5.840;2022-08-05T01:35:31;3.53;;;2.60;;
20209;SDS011;10264;53.178;5.840;2022-08-05T01:38:18;4.47;;;2.43;;
20209;SDS011;10264;53.178;5.840;2022-08-05T01:40:56;3.73;;;2.20;;
20209;SDS011;10264;53.178;5.840;2022-08-05T01:43:24;6.00;;;2.70;;
20209;SDS011;10264;53.178;5.840;2022-08-05T01:45:53;5.70;;;2.50;;
20209;SDS011;10264;53.178;5.840;2022-08-05T01:48:22;3.97;;;2.40;;
20209;SDS011;10264;53.178;5.840;2022-08-05T01:50:52;4.50;;;2.33;;
20209;SDS011;10264;53.178;5.840;2022-08-05T01:53:22;3.60;;;2.60;;
20209;SDS011;10264;53.178;5.840;2022-08-05T01:56:10;5.30;;;2.20;;
20209;SDS011;10264;53.178;5.840;2022-08-05T01:59:03;6.73;;;2.33;;
20209;SDS011;10264;53.178;5.840;2022-08-05T02:01:33;3.33;;;2.60;;
20209;SDS011;10264;53.178;5.840;2022-08-05T02:04:05;2.63;;;2.40;;
20209;SDS011;10264;53.178;5.840;2022-08-05T02:06:35;3.07;;;2.13;;
20209;SDS011;10264;53.178;5.840;2022-08-05T02:09:04;6.13;;;2.50;;
20209;SDS011;10264;53.178;5.840;2022-08-05T02:11:36;4.03;;;2.73;;
20209;SDS011;10264;53.178;5.840;2022-08-05T02:14:25;4.13;;;3.00;;
20209;SDS011;10264;53.178;5.840;2022-08-05T02:17:19;3.87;;;2.30;;
20209;SDS011;10264;53.178;5.840;2022-08-05T02:20:16;4.63;;;2.23;;
20209;SDS011;10264;53.178;5.840;2022-08-05T02:22:49;4.17;;;2.67;;
20209;SDS011;10264;53.178;5.840;2022-08-05T02:25:25;3.13;;;2.30;;
20209;SDS011;10264;53.178;5.840;2022-08-05T02:27:58;3.17;;;2.30;;
20209;SDS011;10264;53.178;5.840;2022-08-05T02:30:37;4.23;;;2.47;;
20209;SDS011;10264;53.178;5.840;2022-08-05T02:33:19;4.23;;;2.80;;
20209;SDS011;10264;53.178;5.840;2022-08-05T02:36:01;3.90;;;2.50;;
20209;SDS011;10264;53.178;5.840;2022-08-05T02:38:29;2.40;;;2.17;;
20209;SDS011;10264;53.178;5.840;2022-08-05T02:41:00;3.40;;;2.57;;
20209;SDS011;10264;53.178;5.840;2022-08-05T02:43:40;4.23;;;3.10;;
20209;SDS011;10264;53.178;5.840;2022-08-05T02:46:28;2.63;;;2.20;;
20209;SDS011;10264;53.178;5.840;2022-08-05T02:48:55;4.43;;;2.77;;
20209;SDS011;10264;53.178;5.840;2022-08-05T02:51:22;4.07;;;2.47;;
20209;SDS011;10264;53.178;5.840;2022-08-05T02:54:10;3.43;;;2.47;;
20209;SDS011;10264;53.178;5.840;2022-08-05T02:56:58;2.67;;;2.10;;
20209;SDS011;10264;53.178;5.840;2022-08-05T02:59:25;2.57;;;2.17;;
20209;SDS011;10264;53.178;5.840;2022-08-05T03:02:13;4.63;;;2.70;;
20209;SDS011;10264;53.178;5.840;2022-08-05T03:04:42;4.30;;;3.50;;
20209;SDS011;10264;53.178;5.840;2022-08-05T03:07:11;5.43;;;3.87;;
20209;SDS011;10264;53.178;5.840;2022-08-05T03:09:58;4.30;;;3.90;;
20209;SDS011;10264;53.178;5.840;2022-08-05T03:12:28;5.27;;;3.80;;
20209;SDS011;10264;53.178;5.840;2022-08-05T03:14:58;6.30;;;3.80;;
20209;SDS011;10264;53.178;5.840;2022-08-05T03:17:24;5.93;;;3.63;;
20209;SDS011;10264;53.178;5.840;2022-08-05T03:19:52;4.93;;;3.77;;
20209;SDS011;10264;53.178;5.840;2022-08-05T03:22:23;5.00;;;4.10;;
20209;SDS011;10264;53.178;5.840;2022-08-05T03:24:58;5.87;;;5.07;;
20209;SDS011;10264;53.178;5.840;2022-08-05T03:27:46;5.30;;;3.90;;
20209;SDS011;10264;53.178;5.840;2022-08-05T03:30:26;5.63;;;4.07;;
20209;SDS011;10264;53.178;5.840;2022-08-05T03:33:00;3.93;;;3.53;;
20209;SDS011;10264;53.178;5.840;2022-08-05T03:35:28;4.97;;;4.47;;
20209;SDS011;10264;53.178;5.840;2022-08-05T03:37:59;7.37;;;5.47;;
20209;SDS011;10264;53.178;5.840;2022-08-05T03:40:26;9.63;;;5.17;;
20209;SDS011;10264;53.178;5.840;2022-08-05T03:42:58;5.33;;;4.90;;
20209;SDS011;10264;53.178;5.840;2022-08-05T03:45:50;6.27;;;5.33;;
20209;SDS011;10264;53.178;5.840;2022-08-05T03:48:24;8.73;;;4.83;;
20209;SDS011;10264;53.178;5.840;2022-08-05T03:53:49;5.47;;;4.80;;
20209;SDS011;10264;53.178;5.840;2022-08-05T03:56:43;5.50;;;4.97;;
20209;SDS011;10264;53.178;5.840;2022-08-05T04:01:46;6.50;;;5.17;;
20209;SDS011;10264;53.178;5.840;2022-08-05T04:04:17;6.33;;;5.07;;
20209;SDS011;10264;53.178;5.840;2022-08-05T04:07:11;5.67;;;5.17;;
20209;SDS011;10264;53.178;5.840;2022-08-05T04:09:40;7.63;;;5.27;;
20209;SDS011;10264;53.178;5.840;2022-08-05T04:12:19;6.13;;;5.30;;
20209;SDS011;10264;53.178;5.840;2022-08-05T04:14:50;6.93;;;5.30;;
20209;SDS011;10264;53.178;5.840;2022-08-05T04:17:25;6.50;;;5.67;;
20209;SDS011;10264;53.178;5.840;2022-08-05T04:20:21;8.67;;;6.30;;
20209;SDS011;10264;53.178;5.840;2022-08-05T04:22:51;8.33;;;6.87;;
20209;SDS011;10264;53.178;5.840;2022-08-05T04:25:25;7.40;;;6.60;;
20209;SDS011;10264;53.178;5.840;2022-08-05T04:28:12;9.57;;;7.20;;
20209;SDS011;10264;53.178;5.840;2022-08-05T04:30:56;8.93;;;7.03;;
20209;SDS011;10264;53.178;5.840;2022-08-05T04:33:26;8.83;;;6.63;;
20209;SDS011;10264;53.178;5.840;2022-08-05T04:36:13;7.27;;;6.43;;
20209;SDS011;10264;53.178;5.840;2022-08-05T04:39:00;6.40;;;5.80;;
20209;SDS011;10264;53.178;5.840;2022-08-05T04:41:32;7.70;;;5.80;;
20209;SDS011;10264;53.178;5.840;2022-08-05T04:44:03;6.37;;;5.60;;
20209;SDS011;10264;53.178;5.840;2022-08-05T04:46:57;6.23;;;5.73;;
20209;SDS011;10264;53.178;5.840;2022-08-05T04:49:45;6.57;;;5.70;;
20209;SDS011;10264;53.178;5.840;2022-08-05T04:52:34;6.77;;;5.63;;
20209;SDS011;10264;53.178;5.840;2022-08-05T04:55:05;6.83;;;6.13;;
20209;SDS011;10264;53.178;5.840;2022-08-05T04:57:40;5.80;;;5.13;;
20209;SDS011;10264;53.178;5.840;2022-08-05T05:00:19;6.33;;;5.73;;
20209;SDS011;10264;53.178;5.840;2022-08-05T05:02:51;6.30;;;5.70;;
20209;SDS011;10264;53.178;5.840;2022-08-05T05:05:20;5.60;;;5.13;;
20209;SDS011;10264;53.178;5.840;2022-08-05T05:07:54;9.80;;;4.93;;
20209;SDS011;10264;53.178;5.840;2022-08-05T05:10:55;7.07;;;5.33;;
20209;SDS011;10264;53.178;5.840;2022-08-05T05:13:35;9.43;;;4.97;;
20209;SDS011;10264;53.178;5.840;2022-08-05T05:16:11;5.63;;;5.13;;
20209;SDS011;10264;53.178;5.840;2022-08-05T05:18:47;7.97;;;5.50;;
20209;SDS011;10264;53.178;5.840;2022-08-05T05:21:34;8.57;;;5.23;;
20209;SDS011;10264;53.178;5.840;2022-08-05T05:24:19;7.87;;;5.07;;
20209;SDS011;10264;53.178;5.840;2022-08-05T05:27:10;6.13;;;4.67;;
20209;SDS011;10264;53.178;5.840;2022-08-05T05:29:48;6.00;;;4.80;;
20209;SDS011;10264;53.178;5.840;2022-08-05T05:32:29;5.83;;;4.10;;
20209;SDS011;10264;53.178;5.840;2022-08-05T05:35:06;5.47;;;4.10;;
20209;SDS011;10264;53.178;5.840;2022-08-05T05:37:52;7.53;;;3.90;;
20209;SDS011;10264;53.178;5.840;2022-08-05T05:40:31;3.53;;;3.07;;
20209;SDS011;10264;53.178;5.840;2022-08-05T05:43:29;5.10;;;2.87;;
20209;SDS011;10264;53.178;5.840;2022-08-05T05:46:24;4.10;;;1.80;;
20209;SDS011;10264;53.178;5.840;2022-08-05T05:49:05;2.93;;;1.53;;
20209;SDS011;10264;53.178;5.840;2022-08-05T05:51:47;2.67;;;1.80;;
20209;SDS011;10264;53.178;5.840;2022-08-05T05:54:18;3.53;;;1.83;;
20209;SDS011;10264;53.178;5.840;2022-08-05T05:56:46;2.57;;;1.33;;
20209;SDS011;10264;53.178;5.840;2022-08-05T05:59:20;2.27;;;1.10;;
20209;SDS011;10264;53.178;5.840;2022-08-05T06:01:53;1.90;;;1.30;;
20209;SDS011;10264;53.178;5.840;2022-08-05T06:04:32;1.50;;;1.00;;
20209;SDS011;10264;53.178;5.840;2022-08-05T06:07:06;1.80;;;1.00;;
20209;SDS011;10264;53.178;5.840;2022-08-05T06:09:43;1.80;;;1.10;;
20209;SDS011;10264;53.178;5.840;2022-08-05T06:12:33;1.67;;;1.00;;
20209;SDS011;10264;53.178;5.840;2022-08-05T06:15:07;3.13;;;1.10;;
20209;SDS011;10264;53.178;5.840;2022-08-05T06:17:57;3.38;;;1.13;;
20209;SDS011;10264;53.178;5.840;2022-08-05T06:20:28;2.87;;;1.10;;
20209;SDS011;10264;53.178;5.840;2022-08-05T06:22:54;2.87;;;1.23;;
20209;SDS011;10264;53.178;5.840;2022-08-05T06:26:01;2.20;;;1.00;;
20209;SDS011;10264;53.178;5.840;2022-08-05T06:28:49;2.13;;;1.03;;
20209;SDS011;10264;53.178;5.840;2022-08-05T06:31:36;3.43;;;1.00;;
20209;SDS011;10264;53.178;5.840;2022-08-05T06:34:07;2.05;;;1.40;;
20209;SDS011;10264;53.178;5.840;2022-08-05T06:36:45;2.45;;;1.10;;
20209;SDS011;10264;53.178;5.840;2022-08-05T06:39:23;2.38;;;1.20;;
20209;SDS011;10264;53.178;5.840;2022-08-05T06:41:54;2.23;;;1.10;;
20209;SDS011;10264;53.178;5.840;2022-08-05T06:44:25;2.43;;;1.00;;
20209;SDS011;10264;53.178;5.840;2022-08-05T06:46:56;4.27;;;1.57;;
20209;SDS011;10264;53.178;5.840;2022-08-05T06:49:27;2.87;;;1.20;;
20209;SDS011;10264;53.178;5.840;2022-08-05T06:52:13;2.47;;;1.20;;
20209;SDS011;10264;53.178;5.840;2022-08-05T06:55:00;1.07;;;0.97;;
20209;SDS011;10264;53.178;5.840;2022-08-05T06:57:27;1.93;;;0.90;;
20209;SDS011;10264;53.178;5.840;2022-08-05T07:00:14;5.33;;;1.23;;
20209;SDS011;10264;53.178;5.840;2022-08-05T07:02:49;3.30;;;1.30;;
20209;SDS011;10264;53.178;5.840;2022-08-05T07:05:19;1.10;;;1.00;;
20209;SDS011;10264;53.178;5.840;2022-08-05T07:07:57;1.90;;;1.00;;
20209;SDS011;10264;53.178;5.840;2022-08-05T07:10:24;3.27;;;1.20;;
20209;SDS011;10264;53.178;5.840;2022-08-05T07:12:57;1.13;;;0.83;;
20209;SDS011;10264;53.178;5.840;2022-08-05T07:15:24;3.17;;;1.00;;
20209;SDS011;10264;53.178;5.840;2022-08-05T07:18:11;2.43;;;1.00;;
20209;SDS011;10264;53.178;5.840;2022-08-05T07:20:45;2.30;;;1.15;;
20209;SDS011;10264;53.178;5.840;2022-08-05T07:23:12;1.53;;;1.00;;
20209;SDS011;10264;53.178;5.840;2022-08-05T07:25:51;1.27;;;0.80;;
20209;SDS011;10264;53.178;5.840;2022-08-05T07:28:21;1.83;;;1.05;;
20209;SDS011;10264;53.178;5.840;2022-08-05T07:30:48;1.45;;;0.90;;
20209;SDS011;10264;53.178;5.840;2022-08-05T07:33:20;2.20;;;1.00;;
20209;SDS011;10264;53.178;5.840;2022-08-05T07:36:02;2.40;;;1.05;;
20209;SDS011;10264;53.178;5.840;2022-08-05T07:38:46;2.67;;;1.15;;
20209;SDS011;10264;53.178;5.840;2022-08-05T07:41:15;2.90;;;1.10;;
20209;SDS011;10264;53.178;5.840;2022-08-05T07:44:05;4.35;;;1.10;;
20209;SDS011;10264;53.178;5.840;2022-08-05T07:46:44;5.55;;;1.10;;
20209;SDS011;10264;53.178;5.840;2022-08-05T07:49:13;2.40;;;1.00;;
20209;SDS011;10264;53.178;5.840;2022-08-05T07:51:40;2.45;;;1.20;;
20209;SDS011;10264;53.178;5.840;2022-08-05T07:54:20;1.97;;;1.20;;
20209;SDS011;10264;53.178;5.840;2022-08-05T07:56:55;2.90;;;1.10;;
20209;SDS011;10264;53.178;5.840;2022-08-05T07:59:40;2.70;;;1.00;;
20209;SDS011;10264;53.178;5.840;2022-08-05T08:02:09;2.73;;;1.07;;
20209;SDS011;10264;53.178;5.840;2022-08-05T08:04:43;2.07;;;0.90;;
20209;SDS011;10264;53.178;5.840;2022-08-05T08:07:14;3.50;;;1.00;;
20209;SDS011;10264;53.178;5.840;2022-08-05T08:09:43;1.43;;;1.10;;
20209;SDS011;10264;53.178;5.840;2022-08-05T08:12:10;2.10;;;1.17;;
20209;SDS011;10264;53.178;5.840;2022-08-05T08:14:57;3.03;;;1.10;;
20209;SDS011;10264;53.178;5.840;2022-08-05T08:17:28;1.47;;;0.90;;
20209;SDS011;10264;53.178;5.840;2022-08-05T08:19:55;1.53;;;0.83;;
20209;SDS011;10264;53.178;5.840;2022-08-05T08:22:42;3.50;;;1.10;;
20209;SDS011;10264;53.178;5.840;2022-08-05T08:25:21;1.93;;;1.10;;
20209;SDS011;10264;53.178;5.840;2022-08-05T08:28:09;1.67;;;1.00;;
20209;SDS011;10264;53.178;5.840;2022-08-05T08:30:56;2.77;;;1.00;;
20209;SDS011;10264;53.178;5.840;2022-08-05T08:33:23;1.43;;;1.20;;
20209;SDS011;10264;53.178;5.840;2022-08-05T08:36:03;2.20;;;1.00;;
20209;SDS011;10264;53.178;5.840;2022-08-05T08:38:50;1.93;;;1.00;;
20209;SDS011;10264;53.178;5.840;2022-08-05T08:41:18;0.87;;;0.80;;
20209;SDS011;10264;53.178;5.840;2022-08-05T08:44:16;1.40;;;0.90;;
20209;SDS011;10264;53.178;5.840;2022-08-05T08:47:05;1.10;;;0.88;;
20209;SDS011;10264;53.178;5.840;2022-08-05T08:49:55;1.40;;;1.00;;
20209;SDS011;10264;53.178;5.840;2022-08-05T08:52:55;1.48;;;0.75;;
20209;SDS011;10264;53.178;5.840;2022-08-05T08:55:40;1.23;;;0.80;;
20209;SDS011;10264;53.178;5.840;2022-08-05T08:58:26;3.10;;;0.70;;
20209;SDS011;10264;53.178;5.840;2022-08-05T09:01:13;2.85;;;0.80;;
20209;SDS011;10264;53.178;5.840;2022-08-05T09:03:52;2.22;;;0.95;;
20209;SDS011;10264;53.178;5.840;2022-08-05T09:06:27;1.65;;;0.90;;
20209;SDS011;10264;53.178;5.840;2022-08-05T09:09:01;0.93;;;0.70;;
20209;SDS011;10264;53.178;5.840;2022-08-05T09:11:29;1.88;;;0.75;;
20209;SDS011;10264;53.178;5.840;2022-08-05T09:14:17;1.85;;;0.60;;
20209;SDS011;10264;53.178;5.840;2022-08-05T09:17:05;1.03;;;0.80;;
20209;SDS011;10264;53.178;5.840;2022-08-05T09:19:35;1.65;;;0.98;;
20209;SDS011;10264;53.178;5.840;2022-08-05T09:22:22;1.48;;;0.90;;
20209;SDS011;10264;53.178;5.840;2022-08-05T09:25:00;1.92;;;0.70;;
20209;SDS011;10264;53.178;5.840;2022-08-05T09:27:48;1.20;;;0.87;;
20209;SDS011;10264;53.178;5.840;2022-08-05T09:30:32;1.60;;;0.70;;
20209;SDS011;10264;53.178;5.840;2022-08-05T09:33:02;1.27;;;0.70;;
20209;SDS011;10264;53.178;5.840;2022-08-05T09:35:30;1.10;;;0.70;;
20209;SDS011;10264;53.178;5.840;2022-08-05T09:37:58;1.00;;;0.90;;
20209;SDS011;10264;53.178;5.840;2022-08-05T09:40:42;1.67;;;0.80;;
20209;SDS011;10264;53.178;5.840;2022-08-05T09:43:31;1.83;;;0.75;;
20209;SDS011;10264;53.178;5.840;2022-08-05T09:46:07;0.85;;;0.70;;
20209;SDS011;10264;53.178;5.840;2022-08-05T09:48:54;1.30;;;0.80;;
20209;SDS011;10264;53.178;5.840;2022-08-05T09:51:41;1.20;;;0.73;;
20209;SDS011;10264;53.178;5.840;2022-08-05T09:54:08;0.67;;;0.67;;
20209;SDS011;10264;53.178;5.840;2022-08-05T09:56:35;2.50;;;0.80;;
20209;SDS011;10264;53.178;5.840;2022-08-05T10:01:29;0.65;;;0.65;;
20209;SDS011;10264;53.178;5.840;2022-08-05T10:04:03;0.90;;;0.60;;
20209;SDS011;10264;53.178;5.840;2022-08-05T10:06:41;1.00;;;0.73;;
20209;SDS011;10264;53.178;5.840;2022-08-05T10:09:24;1.13;;;0.77;;
20209;SDS011;10264;53.178;5.840;2022-08-05T10:11:54;0.70;;;0.70;;
20209;SDS011;10264;53.178;5.840;2022-08-05T10:14:52;2.10;;;0.73;;
20209;SDS011;10264;53.178;5.840;2022-08-05T10:17:19;1.10;;;0.80;;
20209;SDS011;10264;53.178;5.840;2022-08-05T10:20:06;1.35;;;0.90;;
20209;SDS011;10264;53.178;5.840;2022-08-05T10:22:40;3.17;;;0.80;;
20209;SDS011;10264;53.178;5.840;2022-08-05T10:25:13;2.20;;;0.90;;
20209;SDS011;10264;53.178;5.840;2022-08-05T10:27:40;1.80;;;0.63;;
20209;SDS011;10264;53.178;5.840;2022-08-05T10:30:27;1.27;;;0.70;;
20209;SDS011;10264;53.178;5.840;2022-08-05T10:33:14;2.30;;;0.90;;
20209;SDS011;10264;53.178;5.840;2022-08-05T10:35:44;1.03;;;0.87;;
20209;SDS011;10264;53.178;5.840;2022-08-05T10:38:28;0.70;;;0.70;;
20209;SDS011;10264;53.178;5.840;2022-08-05T10:44:11;2.40;;;0.80;;
20209;SDS011;10264;53.178;5.840;2022-08-05T10:46:46;1.37;;;0.90;;
20209;SDS011;10264;53.178;5.840;2022-08-05T10:49:16;1.30;;;0.77;;
20209;SDS011;10264;53.178;5.840;2022-08-05T10:51:53;1.10;;;1.00;;
20209;SDS011;10264;53.178;5.840;2022-08-05T10:54:44;3.37;;;1.20;;
20209;SDS011;10264;53.178;5.840;2022-08-05T10:57:26;2.53;;;0.93;;
20209;SDS011;10264;53.178;5.840;2022-08-05T11:00:08;1.93;;;0.80;;
20209;SDS011;10264;53.178;5.840;2022-08-05T11:03:08;2.80;;;0.80;;
20209;SDS011;10264;53.178;5.840;2022-08-05T11:06:12;1.27;;;0.67;;
20209;SDS011;10264;53.178;5.840;2022-08-05T11:11:42;2.80;;;0.70;;
20209;SDS011;10264;53.178;5.840;2022-08-05T11:14:25;1.77;;;0.77;;
20209;SDS011;10264;53.178;5.840;2022-08-05T11:22:57;1.23;;;0.70;;
20209;SDS011;10264;53.178;5.840;2022-08-05T11:25:34;1.20;;;0.80;;
20209;SDS011;10264;53.178;5.840;2022-08-05T11:33:27;3.87;;;0.80;;
20209;SDS011;10264;53.178;5.840;2022-08-05T11:36:12;0.93;;;0.93;;
20209;SDS011;10264;53.178;5.840;2022-08-05T11:39:00;2.20;;;0.70;;
20209;SDS011;10264;53.178;5.840;2022-08-05T11:41:29;0.80;;;0.80;;
20209;SDS011;10264;53.178;5.840;2022-08-05T11:44:15;2.27;;;0.70;;
20209;SDS011;10264;53.178;5.840;2022-08-05T11:47:02;1.30;;;0.73;;
20209;SDS011;10264;53.178;5.840;2022-08-05T11:49:40;1.53;;;0.63;;
20209;SDS011;10264;53.178;5.840;2022-08-05T11:52:08;1.17;;;0.70;;
20209;SDS011;10264;53.178;5.840;2022-08-05T11:54:37;2.40;;;0.80;;
20209;SDS011;10264;53.178;5.840;2022-08-05T11:57:06;2.50;;;0.77;;
20209;SDS011;10264;53.178;5.840;2022-08-05T11:59:49;3.17;;;0.80;;
20209;SDS011;10264;53.178;5.840;2022-08-05T12:02:16;1.33;;;0.80;;
20209;SDS011;10264;53.178;5.840;2022-08-05T12:04:55;2.47;;;0.70;;
20209;SDS011;10264;53.178;5.840;2022-08-05T12:07:25;1.17;;;0.73;;
20209;SDS011;10264;53.178;5.840;2022-08-05T12:10:11;1.27;;;0.80;;
20209;SDS011;10264;53.178;5.840;2022-08-05T12:12:44;1.70;;;0.70;;
20209;SDS011;10264;53.178;5.840;2022-08-05T12:15:25;0.77;;;0.70;;
20209;SDS011;10264;53.178;5.840;2022-08-05T12:18:03;1.67;;;0.90;;
20209;SDS011;10264;53.178;5.840;2022-08-05T12:20:37;1.27;;;0.77;;
20209;SDS011;10264;53.178;5.840;2022-08-05T12:23:07;1.20;;;0.80;;
20209;SDS011;10264;53.178;5.840;2022-08-05T12:25:55;2.90;;;1.07;;
20209;SDS011;10264;53.178;5.840;2022-08-05T12:28:33;1.20;;;0.80;;
20209;SDS011;10264;53.178;5.840;2022-08-05T12:31:23;0.70;;;0.70;;
20209;SDS011;10264;53.178;5.840;2022-08-05T12:34:08;1.30;;;0.70;;
20209;SDS011;10264;53.178;5.840;2022-08-05T12:36:56;1.70;;;0.60;;
20209;SDS011;10264;53.178;5.840;2022-08-05T12:39:28;1.37;;;0.80;;
20209;SDS011;10264;53.178;5.840;2022-08-05T12:42:07;1.93;;;0.70;;
20209;SDS011;10264;53.178;5.840;2022-08-05T12:44:50;1.63;;;0.70;;
20209;SDS011;10264;53.178;5.840;2022-08-05T12:47:26;1.80;;;1.23;;
20209;SDS011;10264;53.178;5.840;2022-08-05T12:50:12;0.73;;;0.60;;
20209;SDS011;10264;53.178;5.840;2022-08-05T12:52:41;2.03;;;0.77;;
20209;SDS011;10264;53.178;5.840;2022-08-05T12:55:15;1.20;;;0.70;;
20209;SDS011;10264;53.178;5.840;2022-08-05T12:57:48;7.07;;;1.40;;
20209;SDS011;10264;53.178;5.840;2022-08-05T13:00:34;5.53;;;1.40;;
20209;SDS011;10264;53.178;5.840;2022-08-05T13:03:27;3.77;;;1.23;;
20209;SDS011;10264;53.178;5.840;2022-08-05T13:05:58;10.67;;;2.37;;
20209;SDS011;10264;53.178;5.840;2022-08-05T13:08:29;5.73;;;1.70;;
20209;SDS011;10264;53.178;5.840;2022-08-05T13:10:58;4.77;;;1.13;;
20209;SDS011;10264;53.178;5.840;2022-08-05T13:13:26;4.57;;;1.00;;
20209;SDS011;10264;53.178;5.840;2022-08-05T13:16:13;3.37;;;1.13;;
20209;SDS011;10264;53.178;5.840;2022-08-05T13:18:51;3.77;;;1.10;;
20209;SDS011;10264;53.178;5.840;2022-08-05T13:21:24;5.27;;;1.13;;
20209;SDS011;10264;53.178;5.840;2022-08-05T13:24:03;4.33;;;1.40;;
20209;SDS011;10264;53.178;5.840;2022-08-05T13:26:33;5.00;;;1.40;;
20209;SDS011;10264;53.178;5.840;2022-08-05T13:29:00;5.97;;;1.03;;
20209;SDS011;10264;53.178;5.840;2022-08-05T13:31:26;2.57;;;1.20;;
20209;SDS011;10264;53.178;5.840;2022-08-05T13:34:13;3.43;;;0.90;;
20209;SDS011;10264;53.178;5.840;2022-08-05T13:36:51;1.23;;;0.90;;
20209;SDS011;10264;53.178;5.840;2022-08-05T13:39:18;1.87;;;0.70;;
20209;SDS011;10264;53.178;5.840;2022-08-05T13:42:04;1.63;;;0.60;;
20209;SDS011;10264;53.178;5.840;2022-08-05T13:44:31;4.17;;;0.93;;
20209;SDS011;10264;53.178;5.840;2022-08-05T13:47:00;1.60;;;0.70;;
20209;SDS011;10264;53.178;5.840;2022-08-05T13:49:34;4.13;;;1.00;;
20209;SDS011;10264;53.178;5.840;2022-08-05T13:54:38;2.70;;;1.10;;
20209;SDS011;10264;53.178;5.840;2022-08-05T13:57:05;0.80;;;0.80;;
20209;SDS011;10264;53.178;5.840;2022-08-05T13:59:35;1.57;;;0.87;;
20209;SDS011;10264;53.178;5.840;2022-08-05T14:02:22;1.13;;;0.80;;
20209;SDS011;10264;53.178;5.840;2022-08-05T14:04:54;1.37;;;0.90;;
20209;SDS011;10264;53.178;5.840;2022-08-05T14:07:26;1.87;;;0.90;;
20209;SDS011;10264;53.178;5.840;2022-08-05T14:10:14;3.60;;;0.80;;
20209;SDS011;10264;53.178;5.840;2022-08-05T14:12:53;3.73;;;0.90;;
20209;SDS011;10264;53.178;5.840;2022-08-05T14:15:19;1.10;;;0.70;;
20209;SDS011;10264;53.178;5.840;2022-08-05T14:18:06;1.13;;;0.70;;
20209;SDS011;10264;53.178;5.840;2022-08-05T14:20:44;2.37;;;0.87;;
20209;SDS011;10264;53.178;5.840;2022-08-05T14:23:19;1.03;;;0.80;;
20209;SDS011;10264;53.178;5.840;2022-08-05T14:25:54;3.40;;;0.90;;
20209;SDS011;10264;53.178;5.840;2022-08-05T14:28:27;2.17;;;0.80;;
20209;SDS011;10264;53.178;5.840;2022-08-05T14:30:56;2.40;;;0.90;;
20209;SDS011;10264;53.178;5.840;2022-08-05T14:33:23;2.47;;;0.73;;
20209;SDS011;10264;53.178;5.840;2022-08-05T14:35:50;1.13;;;0.60;;
20209;SDS011;10264;53.178;5.840;2022-08-05T14:38:20;2.90;;;1.80;;
20209;SDS011;10264;53.178;5.840;2022-08-05T14:41:03;3.20;;;0.80;;
20209;SDS011;10264;53.178;5.840;2022-08-05T14:43:36;0.83;;;0.70;;
20209;SDS011;10264;53.178;5.840;2022-08-05T14:46:23;2.83;;;1.00;;
20209;SDS011;10264;53.178;5.840;2022-08-05T14:48:58;3.13;;;1.07;;
20209;SDS011;10264;53.178;5.840;2022-08-05T14:51:32;2.87;;;1.00;;
20209;SDS011;10264;53.178;5.840;2022-08-05T14:53:59;1.73;;;1.00;;
20209;SDS011;10264;53.178;5.840;2022-08-05T14:56:46;3.40;;;1.00;;
20209;SDS011;10264;53.178;5.840;2022-08-05T14:59:13;1.87;;;1.00;;
20209;SDS011;10264;53.178;5.840;2022-08-05T15:01:40;2.03;;;1.07;;
20209;SDS011;10264;53.178;5.840;2022-08-05T15:04:15;3.10;;;1.27;;
20209;SDS011;10264;53.178;5.840;2022-08-05T15:06:46;1.70;;;0.80;;
20209;SDS011;10264;53.178;5.840;2022-08-05T15:09:15;1.70;;;1.07;;
20209;SDS011;10264;53.178;5.840;2022-08-05T15:12:02;2.13;;;0.90;;
20209;SDS011;10264;53.178;5.840;2022-08-05T15:14:29;2.63;;;0.90;;
20209;SDS011;10264;53.178;5.840;2022-08-05T15:17:02;1.07;;;0.80;;
20209;SDS011;10264;53.178;5.840;2022-08-05T15:19:30;1.83;;;0.70;;
20209;SDS011;10264;53.178;5.840;2022-08-05T15:21:58;1.47;;;0.80;;
20209;SDS011;10264;53.178;5.840;2022-08-05T15:24:26;1.70;;;0.83;;
20209;SDS011;10264;53.178;5.840;2022-08-05T15:26:53;1.77;;;0.80;;
20209;SDS011;10264;53.178;5.840;2022-08-05T15:29:22;2.57;;;1.00;;
20209;SDS011;10264;53.178;5.840;2022-08-05T15:31:55;1.20;;;0.77;;
20209;SDS011;10264;53.178;5.840;2022-08-05T15:34:27;1.83;;;0.93;;
20209;SDS011;10264;53.178;5.840;2022-08-05T15:36:59;1.43;;;0.80;;
20209;SDS011;10264;53.178;5.840;2022-08-05T15:39:32;2.23;;;0.90;;
20209;SDS011;10264;53.178;5.840;2022-08-05T15:42:19;0.73;;;0.73;;
20209;SDS011;10264;53.178;5.840;2022-08-05T15:45:05;0.80;;;0.80;;
20209;SDS011;10264;53.178;5.840;2022-08-05T15:47:35;1.83;;;0.57;;
20209;SDS011;10264;53.178;5.840;2022-08-05T15:50:01;1.23;;;0.80;;
20209;SDS011;10264;53.178;5.840;2022-08-05T15:52:29;2.93;;;1.00;;
20209;SDS011;10264;53.178;5.840;2022-08-05T15:55:15;2.93;;;1.10;;
20209;SDS011;10264;53.178;5.840;2022-08-05T15:57:42;1.77;;;1.10;;
20209;SDS011;10264;53.178;5.840;2022-08-05T16:00:10;1.50;;;1.00;;
20209;SDS011;10264;53.178;5.840;2022-08-05T16:02:41;1.30;;;0.90;;
20209;SDS011;10264;53.178;5.840;2022-08-05T16:05:08;3.23;;;1.30;;
20209;SDS011;10264;53.178;5.840;2022-08-05T16:07:36;3.53;;;1.30;;
20209;SDS011;10264;53.178;5.840;2022-08-05T16:10:11;3.73;;;1.00;;
20209;SDS011;10264;53.178;5.840;2022-08-05T16:12:38;2.37;;;1.47;;
20209;SDS011;10264;53.178;5.840;2022-08-05T16:15:04;2.10;;;1.00;;
20209;SDS011;10264;53.178;5.840;2022-08-05T16:17:34;1.87;;;0.90;;
20209;SDS011;10264;53.178;5.840;2022-08-05T16:20:01;1.70;;;0.83;;
20209;SDS011;10264;53.178;5.840;2022-08-05T16:22:30;2.70;;;0.90;;
20209;SDS011;10264;53.178;5.840;2022-08-05T16:24:59;1.67;;;0.90;;
20209;SDS011;10264;53.178;5.840;2022-08-05T16:27:35;1.17;;;0.80;;